sensor_id;sensor_type;location;lat;lon;timestamp;P1;durP1;ratioP1;P2;durP2;ratioP2
22849;SDS011;11591;44.792;10.358;2023-01-31T00:00:28;48.15;;;17.83;;
22849;SDS011;11591;44.792;10.358;2023-01-31T00:02:54;45.20;;;16.08;;
22849;SDS011;11591;44.792;10.358;2023-01-31T00:05:20;41.83;;;16.17;;
22849;SDS011;11591;44.792;10.358;2023-01-31T00:07:46;49.72;;;17.45;;
22849;SDS011;11591;44.792;10.358;2023-01-31T00:10:12;51.75;;;17.85;;
22849;SDS011;11591;44.792;10.358;2023-01-31T00:12:38;47.65;;;17.45;;
22849;SDS011;11591;44.792;10.358;2023-01-31T00:15:04;49.72;;;18.95;;
22849;SDS011;11591;44.792;10.358;2023-01-31T00:17:30;51.15;;;19.92;;
22849;SDS011;11591;44.792;10.358;2023-01-31T00:19:55;60.30;;;21.30;;
22849;SDS011;11591;44.792;10.358;2023-01-31T00:22:21;53.20;;;20.73;;
22849;SDS011;11591;44.792;10.358;2023-01-31T00:24:47;56.28;;;21.00;;
22849;SDS011;11591;44.792;10.358;2023-01-31T00:27:13;52.92;;;19.90;;
22849;SDS011;11591;44.792;10.358;2023-01-31T00:29:39;57.90;;;21.60;;
22849;SDS011;11591;44.792;10.358;2023-01-31T00:32:04;59.20;;;21.92;;
22849;SDS011;11591;44.792;10.358;2023-01-31T00:34:30;52.30;;;21.25;;
22849;SDS011;11591;44.792;10.358;2023-01-31T00:36:56;53.60;;;20.98;;
22849;SDS011;11591;44.792;10.358;2023-01-31T00:39:22;54.53;;;21.13;;
22849;SDS011;11591;44.792;10.358;2023-01-31T00:41:48;52.58;;;21.38;;
22849;SDS011;11591;44.792;10.358;2023-01-31T00:44:13;55.03;;;21.27;;
22849;SDS011;11591;44.792;10.358;2023-01-31T00:46:39;63.22;;;24.90;;
22849;SDS011;11591;44.792;10.358;2023-01-31T00:49:05;57.58;;;22.70;;
22849;SDS011;11591;44.792;10.358;2023-01-31T00:51:31;60.25;;;21.58;;
22849;SDS011;11591;44.792;10.358;2023-01-31T00:53:57;58.72;;;21.17;;
22849;SDS011;11591;44.792;10.358;2023-01-31T00:56:23;55.83;;;21.10;;
22849;SDS011;11591;44.792;10.358;2023-01-31T00:58:50;66.38;;;22.15;;
22849;SDS011;11591;44.792;10.358;2023-01-31T01:01:26;62.15;;;21.92;;
22849;SDS011;11591;44.792;10.358;2023-01-31T01:03:54;54.63;;;20.88;;
22849;SDS011;11591;44.792;10.358;2023-01-31T01:06:21;55.83;;;21.45;;
22849;SDS011;11591;44.792;10.358;2023-01-31T01:08:49;70.18;;;23.13;;
22849;SDS011;11591;44.792;10.358;2023-01-31T01:11:25;59.28;;;22.75;;
22849;SDS011;11591;44.792;10.358;2023-01-31T01:13:52;54.03;;;21.60;;
22849;SDS011;11591;44.792;10.358;2023-01-31T01:16:23;61.88;;;22.73;;
22849;SDS011;11591;44.792;10.358;2023-01-31T01:18:55;62.35;;;23.20;;
22849;SDS011;11591;44.792;10.358;2023-01-31T01:21:24;58.47;;;22.33;;
22849;SDS011;11591;44.792;10.358;2023-01-31T01:23:54;59.10;;;22.83;;
22849;SDS011;11591;44.792;10.358;2023-01-31T01:26:23;58.85;;;22.50;;
22849;SDS011;11591;44.792;10.358;2023-01-31T01:28:51;58.53;;;21.98;;
22849;SDS011;11591;44.792;10.358;2023-01-31T01:31:18;61.22;;;23.08;;
22849;SDS011;11591;44.792;10.358;2023-01-31T01:33:45;61.95;;;23.08;;
22849;SDS011;11591;44.792;10.358;2023-01-31T01:36:13;62.50;;;23.23;;
22849;SDS011;11591;44.792;10.358;2023-01-31T01:38:42;58.15;;;21.77;;
22849;SDS011;11591;44.792;10.358;2023-01-31T01:41:10;61.78;;;23.70;;
22849;SDS011;11591;44.792;10.358;2023-01-31T01:48:47;68.50;;;24.23;;
22849;SDS011;11591;44.792;10.358;2023-01-31T01:51:17;59.03;;;22.17;;
22849;SDS011;11591;44.792;10.358;2023-01-31T01:53:46;66.70;;;22.88;;
22849;SDS011;11591;44.792;10.358;2023-01-31T01:56:17;60.58;;;21.95;;
22849;SDS011;11591;44.792;10.358;2023-01-31T01:58:55;61.38;;;22.30;;
22849;SDS011;11591;44.792;10.358;2023-01-31T02:01:28;62.60;;;22.92;;
22849;SDS011;11591;44.792;10.358;2023-01-31T02:03:57;62.85;;;22.42;;
22849;SDS011;11591;44.792;10.358;2023-01-31T02:06:23;60.08;;;22.02;;
22849;SDS011;11591;44.792;10.358;2023-01-31T02:08:49;61.58;;;23.48;;
22849;SDS011;11591;44.792;10.358;2023-01-31T02:13:49;62.08;;;22.48;;
22849;SDS011;11591;44.792;10.358;2023-01-31T02:16:19;55.30;;;21.80;;
22849;SDS011;11591;44.792;10.358;2023-01-31T02:18:45;58.35;;;22.20;;
22849;SDS011;11591;44.792;10.358;2023-01-31T02:35:43;62.85;;;22.77;;
22849;SDS011;11591;44.792;10.358;2023-01-31T02:46:23;62.40;;;19.55;;
22849;SDS011;11591;44.792;10.358;2023-01-31T02:49:44;53.35;;;20.02;;
22849;SDS011;11591;44.792;10.358;2023-01-31T02:57:53;46.20;;;18.10;;
22849;SDS011;11591;44.792;10.358;2023-01-31T03:00:22;57.70;;;20.08;;
22849;SDS011;11591;44.792;10.358;2023-01-31T03:02:49;48.75;;;19.25;;
22849;SDS011;11591;44.792;10.358;2023-01-31T03:05:16;53.22;;;19.40;;
22849;SDS011;11591;44.792;10.358;2023-01-31T03:07:52;46.92;;;19.02;;
22849;SDS011;11591;44.792;10.358;2023-01-31T03:21:50;49.95;;;19.33;;
22849;SDS011;11591;44.792;10.358;2023-01-31T03:24:20;47.45;;;17.83;;
22849;SDS011;11591;44.792;10.358;2023-01-31T03:26:51;52.30;;;19.88;;
22849;SDS011;11591;44.792;10.358;2023-01-31T03:29:19;53.95;;;19.90;;
22849;SDS011;11591;44.792;10.358;2023-01-31T03:31:52;47.97;;;18.35;;
22849;SDS011;11591;44.792;10.358;2023-01-31T03:34:32;46.90;;;17.60;;
22849;SDS011;11591;44.792;10.358;2023-01-31T03:37:33;52.22;;;19.02;;
22849;SDS011;11591;44.792;10.358;2023-01-31T03:45:12;46.40;;;16.95;;
22849;SDS011;11591;44.792;10.358;2023-01-31T03:47:45;48.90;;;17.08;;
22849;SDS011;11591;44.792;10.358;2023-01-31T03:50:25;45.50;;;15.35;;
22849;SDS011;11591;44.792;10.358;2023-01-31T03:53:12;42.00;;;16.08;;
22849;SDS011;11591;44.792;10.358;2023-01-31T03:55:50;39.67;;;16.15;;
22849;SDS011;11591;44.792;10.358;2023-01-31T03:58:21;40.20;;;15.68;;
22849;SDS011;11591;44.792;10.358;2023-01-31T04:00:52;39.40;;;14.98;;
22849;SDS011;11591;44.792;10.358;2023-01-31T04:03:35;41.13;;;15.63;;
22849;SDS011;11591;44.792;10.358;2023-01-31T04:06:13;41.63;;;15.07;;
22849;SDS011;11591;44.792;10.358;2023-01-31T04:08:39;40.85;;;15.10;;
22849;SDS011;11591;44.792;10.358;2023-01-31T04:11:09;39.22;;;15.15;;
22849;SDS011;11591;44.792;10.358;2023-01-31T04:13:37;38.83;;;14.75;;
22849;SDS011;11591;44.792;10.358;2023-01-31T04:16:03;36.13;;;13.32;;
22849;SDS011;11591;44.792;10.358;2023-01-31T04:18:29;41.05;;;14.77;;
22849;SDS011;11591;44.792;10.358;2023-01-31T04:20:55;35.92;;;14.23;;
22849;SDS011;11591;44.792;10.358;2023-01-31T04:23:21;35.85;;;13.82;;
22849;SDS011;11591;44.792;10.358;2023-01-31T04:25:49;31.55;;;12.95;;
22849;SDS011;11591;44.792;10.358;2023-01-31T04:28:16;36.28;;;14.48;;
22849;SDS011;11591;44.792;10.358;2023-01-31T04:30:42;39.53;;;14.88;;
22849;SDS011;11591;44.792;10.358;2023-01-31T04:33:08;35.38;;;14.43;;
22849;SDS011;11591;44.792;10.358;2023-01-31T04:35:34;41.92;;;14.18;;
22849;SDS011;11591;44.792;10.358;2023-01-31T04:38:00;39.35;;;14.52;;
22849;SDS011;11591;44.792;10.358;2023-01-31T04:40:25;40.13;;;14.57;;
22849;SDS011;11591;44.792;10.358;2023-01-31T04:42:51;33.42;;;13.63;;
22849;SDS011;11591;44.792;10.358;2023-01-31T04:45:17;32.92;;;13.07;;
22849;SDS011;11591;44.792;10.358;2023-01-31T04:47:43;34.78;;;13.15;;
22849;SDS011;11591;44.792;10.358;2023-01-31T04:50:09;41.72;;;14.88;;
22849;SDS011;11591;44.792;10.358;2023-01-31T04:52:35;35.20;;;13.60;;
22849;SDS011;11591;44.792;10.358;2023-01-31T04:55:01;39.40;;;15.25;;
22849;SDS011;11591;44.792;10.358;2023-01-31T04:57:27;35.25;;;13.60;;
22849;SDS011;11591;44.792;10.358;2023-01-31T04:59:52;40.83;;;14.70;;
22849;SDS011;11591;44.792;10.358;2023-01-31T05:02:18;39.30;;;13.75;;
22849;SDS011;11591;44.792;10.358;2023-01-31T05:04:44;36.38;;;14.43;;
22849;SDS011;11591;44.792;10.358;2023-01-31T05:07:11;39.28;;;14.98;;
22849;SDS011;11591;44.792;10.358;2023-01-31T05:09:36;35.42;;;13.15;;
22849;SDS011;11591;44.792;10.358;2023-01-31T05:12:03;41.05;;;15.48;;
22849;SDS011;11591;44.792;10.358;2023-01-31T05:14:29;41.13;;;15.13;;
22849;SDS011;11591;44.792;10.358;2023-01-31T05:16:56;36.00;;;15.10;;
22849;SDS011;11591;44.792;10.358;2023-01-31T05:19:22;35.63;;;14.27;;
22849;SDS011;11591;44.792;10.358;2023-01-31T05:21:48;40.88;;;15.40;;
22849;SDS011;11591;44.792;10.358;2023-01-31T05:24:22;40.58;;;14.30;;
22849;SDS011;11591;44.792;10.358;2023-01-31T05:26:50;40.92;;;15.68;;
22849;SDS011;11591;44.792;10.358;2023-01-31T05:29:20;46.40;;;15.90;;
22849;SDS011;11591;44.792;10.358;2023-01-31T05:34:15;44.15;;;16.77;;
22849;SDS011;11591;44.792;10.358;2023-01-31T05:36:41;40.10;;;15.73;;
22849;SDS011;11591;44.792;10.358;2023-01-31T05:39:07;38.70;;;14.55;;
22849;SDS011;11591;44.792;10.358;2023-01-31T05:41:34;38.40;;;14.25;;
22849;SDS011;11591;44.792;10.358;2023-01-31T05:43:59;30.02;;;12.80;;
22849;SDS011;11591;44.792;10.358;2023-01-31T05:46:26;30.98;;;12.48;;
22849;SDS011;11591;44.792;10.358;2023-01-31T05:48:51;28.55;;;11.30;;
22849;SDS011;11591;44.792;10.358;2023-01-31T05:51:17;30.88;;;9.88;;
22849;SDS011;11591;44.792;10.358;2023-01-31T05:53:43;25.65;;;10.65;;
22849;SDS011;11591;44.792;10.358;2023-01-31T05:56:09;28.52;;;10.73;;
22849;SDS011;11591;44.792;10.358;2023-01-31T05:58:34;27.13;;;11.00;;
22849;SDS011;11591;44.792;10.358;2023-01-31T06:01:00;28.48;;;10.18;;
22849;SDS011;11591;44.792;10.358;2023-01-31T06:03:26;23.75;;;10.32;;
22849;SDS011;11591;44.792;10.358;2023-01-31T06:05:52;22.75;;;9.93;;
22849;SDS011;11591;44.792;10.358;2023-01-31T06:08:18;28.02;;;10.43;;
22849;SDS011;11591;44.792;10.358;2023-01-31T06:10:43;26.60;;;9.52;;
22849;SDS011;11591;44.792;10.358;2023-01-31T06:13:09;21.83;;;8.77;;
22849;SDS011;11591;44.792;10.358;2023-01-31T06:15:35;25.33;;;9.27;;
22849;SDS011;11591;44.792;10.358;2023-01-31T06:18:02;22.25;;;8.52;;
22849;SDS011;11591;44.792;10.358;2023-01-31T06:20:28;21.17;;;8.93;;
22849;SDS011;11591;44.792;10.358;2023-01-31T06:22:54;23.98;;;8.00;;
22849;SDS011;11591;44.792;10.358;2023-01-31T06:25:19;21.50;;;7.75;;
22849;SDS011;11591;44.792;10.358;2023-01-31T06:27:45;21.77;;;7.55;;
22849;SDS011;11591;44.792;10.358;2023-01-31T06:30:11;19.95;;;7.50;;
22849;SDS011;11591;44.792;10.358;2023-01-31T06:32:37;19.27;;;7.40;;
22849;SDS011;11591;44.792;10.358;2023-01-31T06:35:03;18.50;;;7.78;;
22849;SDS011;11591;44.792;10.358;2023-01-31T06:37:29;26.98;;;7.55;;
22849;SDS011;11591;44.792;10.358;2023-01-31T06:40:07;21.50;;;7.95;;
22849;SDS011;11591;44.792;10.358;2023-01-31T06:42:33;23.95;;;8.77;;
22849;SDS011;11591;44.792;10.358;2023-01-31T06:44:59;26.60;;;10.60;;
22849;SDS011;11591;44.792;10.358;2023-01-31T06:47:25;30.60;;;11.75;;
22849;SDS011;11591;44.792;10.358;2023-01-31T06:49:50;28.67;;;10.95;;
22849;SDS011;11591;44.792;10.358;2023-01-31T06:52:16;30.02;;;11.45;;
22849;SDS011;11591;44.792;10.358;2023-01-31T06:54:42;32.40;;;12.10;;
22849;SDS011;11591;44.792;10.358;2023-01-31T06:57:08;39.85;;;14.40;;
22849;SDS011;11591;44.792;10.358;2023-01-31T06:59:33;34.47;;;13.00;;
22849;SDS011;11591;44.792;10.358;2023-01-31T07:01:59;38.13;;;13.18;;
22849;SDS011;11591;44.792;10.358;2023-01-31T07:04:25;40.25;;;14.40;;
22849;SDS011;11591;44.792;10.358;2023-01-31T07:06:51;38.80;;;14.73;;
22849;SDS011;11591;44.792;10.358;2023-01-31T07:09:16;43.47;;;15.13;;
22849;SDS011;11591;44.792;10.358;2023-01-31T07:11:42;46.22;;;16.85;;
22849;SDS011;11591;44.792;10.358;2023-01-31T07:14:09;44.55;;;15.68;;
22849;SDS011;11591;44.792;10.358;2023-01-31T07:16:35;38.75;;;14.40;;
22849;SDS011;11591;44.792;10.358;2023-01-31T07:19:02;38.92;;;14.90;;
22849;SDS011;11591;44.792;10.358;2023-01-31T07:21:28;41.53;;;15.77;;
22849;SDS011;11591;44.792;10.358;2023-01-31T07:23:54;41.85;;;15.20;;
22849;SDS011;11591;44.792;10.358;2023-01-31T07:26:20;44.67;;;16.25;;
22849;SDS011;11591;44.792;10.358;2023-01-31T07:28:46;44.58;;;16.70;;
22849;SDS011;11591;44.792;10.358;2023-01-31T07:31:12;37.90;;;14.50;;
22849;SDS011;11591;44.792;10.358;2023-01-31T07:33:39;40.20;;;15.75;;
22849;SDS011;11591;44.792;10.358;2023-01-31T07:36:05;41.08;;;16.23;;
22849;SDS011;11591;44.792;10.358;2023-01-31T07:38:32;38.03;;;15.13;;
22849;SDS011;11591;44.792;10.358;2023-01-31T07:40:59;41.22;;;15.63;;
22849;SDS011;11591;44.792;10.358;2023-01-31T07:43:27;43.72;;;15.88;;
22849;SDS011;11591;44.792;10.358;2023-01-31T07:45:53;35.80;;;14.52;;
22849;SDS011;11591;44.792;10.358;2023-01-31T07:48:19;40.20;;;13.90;;
22849;SDS011;11591;44.792;10.358;2023-01-31T07:50:50;37.95;;;14.27;;
22849;SDS011;11591;44.792;10.358;2023-01-31T07:53:27;35.88;;;13.00;;
22849;SDS011;11591;44.792;10.358;2023-01-31T07:55:54;33.65;;;11.85;;
22849;SDS011;11591;44.792;10.358;2023-01-31T07:58:28;35.33;;;11.82;;
22849;SDS011;11591;44.792;10.358;2023-01-31T08:00:54;26.17;;;12.27;;
22849;SDS011;11591;44.792;10.358;2023-01-31T08:03:39;24.77;;;9.90;;
22849;SDS011;11591;44.792;10.358;2023-01-31T08:06:06;21.02;;;9.65;;
22849;SDS011;11591;44.792;10.358;2023-01-31T08:08:35;26.45;;;9.18;;
22849;SDS011;11591;44.792;10.358;2023-01-31T08:11:01;29.20;;;9.75;;
22849;SDS011;11591;44.792;10.358;2023-01-31T08:13:30;20.25;;;8.52;;
22849;SDS011;11591;44.792;10.358;2023-01-31T08:15:56;19.02;;;8.52;;
22849;SDS011;11591;44.792;10.358;2023-01-31T08:18:22;27.70;;;9.52;;
22849;SDS011;11591;44.792;10.358;2023-01-31T08:20:48;25.95;;;9.90;;
22849;SDS011;11591;44.792;10.358;2023-01-31T08:23:13;22.60;;;8.57;;
22849;SDS011;11591;44.792;10.358;2023-01-31T08:25:39;25.50;;;9.20;;
22849;SDS011;11591;44.792;10.358;2023-01-31T08:28:05;19.80;;;8.48;;
22849;SDS011;11591;44.792;10.358;2023-01-31T08:30:31;19.75;;;8.50;;
22849;SDS011;11591;44.792;10.358;2023-01-31T08:32:57;19.48;;;7.90;;
22849;SDS011;11591;44.792;10.358;2023-01-31T08:35:24;25.02;;;9.13;;
22849;SDS011;11591;44.792;10.358;2023-01-31T08:37:51;21.55;;;8.55;;
22849;SDS011;11591;44.792;10.358;2023-01-31T08:40:17;20.90;;;8.75;;
22849;SDS011;11591;44.792;10.358;2023-01-31T08:42:43;19.73;;;8.77;;
22849;SDS011;11591;44.792;10.358;2023-01-31T08:45:17;29.88;;;9.52;;
22849;SDS011;11591;44.792;10.358;2023-01-31T08:47:42;26.67;;;10.10;;
22849;SDS011;11591;44.792;10.358;2023-01-31T08:50:08;24.05;;;9.77;;
22849;SDS011;11591;44.792;10.358;2023-01-31T08:52:35;26.67;;;10.00;;
22849;SDS011;11591;44.792;10.358;2023-01-31T08:55:00;27.05;;;11.65;;
22849;SDS011;11591;44.792;10.358;2023-01-31T08:57:27;21.98;;;10.20;;
22849;SDS011;11591;44.792;10.358;2023-01-31T08:59:53;26.90;;;10.20;;
22849;SDS011;11591;44.792;10.358;2023-01-31T09:02:19;27.83;;;10.70;;
22849;SDS011;11591;44.792;10.358;2023-01-31T09:04:45;26.05;;;11.32;;
22849;SDS011;11591;44.792;10.358;2023-01-31T09:07:11;31.48;;;11.30;;
22849;SDS011;11591;44.792;10.358;2023-01-31T09:09:37;28.67;;;10.18;;
22849;SDS011;11591;44.792;10.358;2023-01-31T09:12:02;24.25;;;10.45;;
22849;SDS011;11591;44.792;10.358;2023-01-31T09:14:28;32.72;;;10.73;;
22849;SDS011;11591;44.792;10.358;2023-01-31T09:16:55;27.75;;;9.90;;
22849;SDS011;11591;44.792;10.358;2023-01-31T09:19:21;27.73;;;11.35;;
22849;SDS011;11591;44.792;10.358;2023-01-31T09:21:47;32.95;;;11.10;;
22849;SDS011;11591;44.792;10.358;2023-01-31T09:24:13;31.42;;;10.90;;
22849;SDS011;11591;44.792;10.358;2023-01-31T09:26:39;31.40;;;12.95;;
22849;SDS011;11591;44.792;10.358;2023-01-31T09:29:05;32.42;;;11.35;;
22849;SDS011;11591;44.792;10.358;2023-01-31T09:31:30;36.03;;;12.93;;
22849;SDS011;11591;44.792;10.358;2023-01-31T09:33:56;27.13;;;11.70;;
22849;SDS011;11591;44.792;10.358;2023-01-31T09:36:22;36.13;;;13.27;;
22849;SDS011;11591;44.792;10.358;2023-01-31T09:38:52;35.85;;;12.63;;
22849;SDS011;11591;44.792;10.358;2023-01-31T09:47:02;32.00;;;12.60;;
22849;SDS011;11591;44.792;10.358;2023-01-31T09:50:00;34.20;;;12.68;;
22849;SDS011;11591;44.792;10.358;2023-01-31T09:52:30;51.33;;;15.52;;
22849;SDS011;11591;44.792;10.358;2023-01-31T09:54:57;35.38;;;14.07;;
22849;SDS011;11591;44.792;10.358;2023-01-31T10:13:50;48.63;;;18.95;;
22849;SDS011;11591;44.792;10.358;2023-01-31T10:19:07;56.95;;;22.55;;
22849;SDS011;11591;44.792;10.358;2023-01-31T10:21:44;55.28;;;21.42;;
22849;SDS011;11591;44.792;10.358;2023-01-31T10:24:28;56.00;;;18.38;;
22849;SDS011;11591;44.792;10.358;2023-01-31T10:27:04;44.17;;;18.67;;
22849;SDS011;11591;44.792;10.358;2023-01-31T10:29:52;41.53;;;18.35;;
22849;SDS011;11591;44.792;10.358;2023-01-31T10:35:34;46.97;;;18.20;;
22849;SDS011;11591;44.792;10.358;2023-01-31T10:37:42;48.00;;;19.15;;
22849;SDS011;11591;44.792;10.358;2023-01-31T10:40:18;45.83;;;18.83;;
22849;SDS011;11591;44.792;10.358;2023-01-31T10:42:57;48.70;;;20.75;;
22849;SDS011;11591;44.792;10.358;2023-01-31T10:45:27;43.92;;;18.83;;
22849;SDS011;11591;44.792;10.358;2023-01-31T10:48:12;45.67;;;19.27;;
22849;SDS011;11591;44.792;10.358;2023-01-31T10:59:01;54.22;;;20.92;;
22849;SDS011;11591;44.792;10.358;2023-01-31T11:01:34;48.40;;;20.05;;
22849;SDS011;11591;44.792;10.358;2023-01-31T11:04:00;55.42;;;22.42;;
22849;SDS011;11591;44.792;10.358;2023-01-31T11:06:26;54.08;;;23.25;;
22849;SDS011;11591;44.792;10.358;2023-01-31T11:08:56;58.47;;;22.60;;
22849;SDS011;11591;44.792;10.358;2023-01-31T11:11:24;55.92;;;22.95;;
22849;SDS011;11591;44.792;10.358;2023-01-31T11:16:29;53.03;;;22.88;;
22849;SDS011;11591;44.792;10.358;2023-01-31T11:18:58;49.85;;;21.60;;
22849;SDS011;11591;44.792;10.358;2023-01-31T11:21:31;49.05;;;20.40;;
22849;SDS011;11591;44.792;10.358;2023-01-31T11:24:02;48.85;;;19.70;;
22849;SDS011;11591;44.792;10.358;2023-01-31T11:26:35;42.75;;;18.30;;
22849;SDS011;11591;44.792;10.358;2023-01-31T11:29:08;48.53;;;19.48;;
22849;SDS011;11591;44.792;10.358;2023-01-31T11:31:41;42.40;;;18.38;;
22849;SDS011;11591;44.792;10.358;2023-01-31T11:34:32;41.97;;;18.13;;
22849;SDS011;11591;44.792;10.358;2023-01-31T11:37:05;45.15;;;17.63;;
22849;SDS011;11591;44.792;10.358;2023-01-31T11:39:38;42.75;;;19.02;;
22849;SDS011;11591;44.792;10.358;2023-01-31T11:42:14;41.47;;;17.48;;
22849;SDS011;11591;44.792;10.358;2023-01-31T11:44:57;44.53;;;17.33;;
22849;SDS011;11591;44.792;10.358;2023-01-31T11:47:46;38.53;;;17.17;;
22849;SDS011;11591;44.792;10.358;2023-01-31T11:50:25;43.28;;;18.80;;
22849;SDS011;11591;44.792;10.358;2023-01-31T11:53:00;43.72;;;17.80;;
22849;SDS011;11591;44.792;10.358;2023-01-31T11:55:34;46.67;;;18.42;;
22849;SDS011;11591;44.792;10.358;2023-01-31T11:58:02;45.55;;;19.13;;
22849;SDS011;11591;44.792;10.358;2023-01-31T12:00:58;50.88;;;19.58;;
22849;SDS011;11591;44.792;10.358;2023-01-31T12:03:26;51.50;;;21.13;;
22849;SDS011;11591;44.792;10.358;2023-01-31T12:06:04;49.60;;;21.23;;
22849;SDS011;11591;44.792;10.358;2023-01-31T12:08:41;50.60;;;20.73;;
22849;SDS011;11591;44.792;10.358;2023-01-31T12:11:22;47.60;;;20.08;;
22849;SDS011;11591;44.792;10.358;2023-01-31T12:13:52;46.85;;;21.10;;
22849;SDS011;11591;44.792;10.358;2023-01-31T12:16:23;48.33;;;22.02;;
22849;SDS011;11591;44.792;10.358;2023-01-31T12:18:55;48.88;;;22.77;;
22849;SDS011;11591;44.792;10.358;2023-01-31T12:21:38;50.15;;;21.23;;
22849;SDS011;11591;44.792;10.358;2023-01-31T12:24:21;52.85;;;19.90;;
22849;SDS011;11591;44.792;10.358;2023-01-31T12:40:38;46.45;;;21.15;;
22849;SDS011;11591;44.792;10.358;2023-01-31T12:45:58;49.22;;;20.80;;
22849;SDS011;11591;44.792;10.358;2023-01-31T12:57:10;54.17;;;24.25;;
22849;SDS011;11591;44.792;10.358;2023-01-31T12:59:45;51.80;;;23.42;;
22849;SDS011;11591;44.792;10.358;2023-01-31T13:05:11;54.05;;;23.67;;
22849;SDS011;11591;44.792;10.358;2023-01-31T13:07:50;53.42;;;24.13;;
22849;SDS011;11591;44.792;10.358;2023-01-31T13:10:45;58.45;;;25.30;;
22849;SDS011;11591;44.792;10.358;2023-01-31T13:13:23;58.08;;;25.75;;
22849;SDS011;11591;44.792;10.358;2023-01-31T13:15:57;58.97;;;25.63;;
22849;SDS011;11591;44.792;10.358;2023-01-31T13:18:30;59.28;;;25.40;;
22849;SDS011;11591;44.792;10.358;2023-01-31T13:21:06;58.28;;;25.63;;
22849;SDS011;11591;44.792;10.358;2023-01-31T13:23:43;58.58;;;25.38;;
22849;SDS011;11591;44.792;10.358;2023-01-31T13:26:21;53.78;;;24.98;;
22849;SDS011;11591;44.792;10.358;2023-01-31T13:29:15;58.85;;;25.92;;
22849;SDS011;11591;44.792;10.358;2023-01-31T13:34:39;62.35;;;26.25;;
22849;SDS011;11591;44.792;10.358;2023-01-31T13:37:13;62.55;;;26.40;;
22849;SDS011;11591;44.792;10.358;2023-01-31T13:39:52;69.13;;;28.08;;
22849;SDS011;11591;44.792;10.358;2023-01-31T13:42:25;64.93;;;26.10;;
22849;SDS011;11591;44.792;10.358;2023-01-31T13:44:52;58.42;;;26.42;;
22849;SDS011;11591;44.792;10.358;2023-01-31T13:47:21;63.45;;;25.60;;
22849;SDS011;11591;44.792;10.358;2023-01-31T13:49:53;53.78;;;25.52;;
22849;SDS011;11591;44.792;10.358;2023-01-31T13:52:38;60.15;;;25.08;;
22849;SDS011;11591;44.792;10.358;2023-01-31T13:55:18;59.70;;;25.90;;
22849;SDS011;11591;44.792;10.358;2023-01-31T13:58:04;69.15;;;27.65;;
22849;SDS011;11591;44.792;10.358;2023-01-31T14:00:44;66.55;;;27.58;;
22849;SDS011;11591;44.792;10.358;2023-01-31T14:03:13;59.20;;;25.98;;
22849;SDS011;11591;44.792;10.358;2023-01-31T14:13:39;63.90;;;26.88;;
22849;SDS011;11591;44.792;10.358;2023-01-31T14:21:55;50.45;;;24.63;;
22849;SDS011;11591;44.792;10.358;2023-01-31T14:51:45;50.20;;;23.55;;
22849;SDS011;11591;44.792;10.358;2023-01-31T14:59:42;48.97;;;23.42;;
22849;SDS011;11591;44.792;10.358;2023-01-31T15:05:17;50.72;;;22.92;;
22849;SDS011;11591;44.792;10.358;2023-01-31T15:19:05;43.83;;;21.33;;
22849;SDS011;11591;44.792;10.358;2023-01-31T15:21:47;51.55;;;22.52;;
22849;SDS011;11591;44.792;10.358;2023-01-31T15:24:19;46.55;;;22.65;;
22849;SDS011;11591;44.792;10.358;2023-01-31T15:26:53;45.20;;;21.73;;
22849;SDS011;11591;44.792;10.358;2023-01-31T15:29:22;53.85;;;23.27;;
22849;SDS011;11591;44.792;10.358;2023-01-31T15:31:54;46.20;;;22.95;;
22849;SDS011;11591;44.792;10.358;2023-01-31T15:34:31;44.63;;;22.25;;
22849;SDS011;11591;44.792;10.358;2023-01-31T15:37:16;42.78;;;22.20;;
22849;SDS011;11591;44.792;10.358;2023-01-31T15:39:50;49.85;;;22.90;;
22849;SDS011;11591;44.792;10.358;2023-01-31T15:42:24;51.45;;;24.05;;
22849;SDS011;11591;44.792;10.358;2023-01-31T15:45:10;44.03;;;22.45;;
22849;SDS011;11591;44.792;10.358;2023-01-31T15:47:36;52.88;;;23.50;;
22849;SDS011;11591;44.792;10.358;2023-01-31T15:50:11;53.17;;;24.45;;
22849;SDS011;11591;44.792;10.358;2023-01-31T15:52:42;49.20;;;23.50;;
22849;SDS011;11591;44.792;10.358;2023-01-31T15:55:08;51.00;;;22.88;;
22849;SDS011;11591;44.792;10.358;2023-01-31T15:57:48;52.72;;;23.23;;
22849;SDS011;11591;44.792;10.358;2023-01-31T16:00:20;49.15;;;22.27;;
22849;SDS011;11591;44.792;10.358;2023-01-31T16:02:47;50.60;;;22.95;;
22849;SDS011;11591;44.792;10.358;2023-01-31T16:05:17;51.08;;;23.02;;
22849;SDS011;11591;44.792;10.358;2023-01-31T16:07:46;51.45;;;23.42;;
22849;SDS011;11591;44.792;10.358;2023-01-31T16:10:13;51.47;;;23.70;;
22849;SDS011;11591;44.792;10.358;2023-01-31T16:12:41;53.03;;;23.35;;
22849;SDS011;11591;44.792;10.358;2023-01-31T16:15:22;51.45;;;24.00;;
22849;SDS011;11591;44.792;10.358;2023-01-31T16:17:53;45.90;;;22.58;;
22849;SDS011;11591;44.792;10.358;2023-01-31T16:20:39;47.75;;;22.73;;
22849;SDS011;11591;44.792;10.358;2023-01-31T16:26:11;52.70;;;22.98;;
22849;SDS011;11591;44.792;10.358;2023-01-31T16:28:51;49.90;;;22.73;;
22849;SDS011;11591;44.792;10.358;2023-01-31T16:31:19;49.25;;;23.45;;
22849;SDS011;11591;44.792;10.358;2023-01-31T16:33:50;50.65;;;23.50;;
22849;SDS011;11591;44.792;10.358;2023-01-31T16:36:29;59.13;;;23.42;;
22849;SDS011;11591;44.792;10.358;2023-01-31T16:39:28;52.90;;;22.60;;
22849;SDS011;11591;44.792;10.358;2023-01-31T16:42:00;55.72;;;22.55;;
22849;SDS011;11591;44.792;10.358;2023-01-31T16:44:34;52.20;;;23.10;;
22849;SDS011;11591;44.792;10.358;2023-01-31T16:47:05;61.03;;;24.60;;
22849;SDS011;11591;44.792;10.358;2023-01-31T16:49:33;55.10;;;24.75;;
22849;SDS011;11591;44.792;10.358;2023-01-31T16:52:15;55.28;;;23.90;;
22849;SDS011;11591;44.792;10.358;2023-01-31T16:54:43;51.50;;;21.92;;
22849;SDS011;11591;44.792;10.358;2023-01-31T16:57:24;54.78;;;23.52;;
22849;SDS011;11591;44.792;10.358;2023-01-31T17:00:02;55.38;;;23.00;;
22849;SDS011;11591;44.792;10.358;2023-01-31T17:02:30;54.03;;;23.38;;
22849;SDS011;11591;44.792;10.358;2023-01-31T17:05:00;59.40;;;24.92;;
22849;SDS011;11591;44.792;10.358;2023-01-31T17:07:46;59.95;;;24.65;;
22849;SDS011;11591;44.792;10.358;2023-01-31T17:10:20;61.08;;;25.33;;
22849;SDS011;11591;44.792;10.358;2023-01-31T17:12:54;61.78;;;23.40;;
22849;SDS011;11591;44.792;10.358;2023-01-31T17:15:26;57.20;;;24.58;;
22849;SDS011;11591;44.792;10.358;2023-01-31T17:17:52;59.90;;;23.13;;
22849;SDS011;11591;44.792;10.358;2023-01-31T17:20:18;63.80;;;26.38;;
22849;SDS011;11591;44.792;10.358;2023-01-31T17:22:45;60.53;;;23.88;;
22849;SDS011;11591;44.792;10.358;2023-01-31T17:25:14;57.22;;;24.60;;
22849;SDS011;11591;44.792;10.358;2023-01-31T17:27:49;66.28;;;27.45;;
22849;SDS011;11591;44.792;10.358;2023-01-31T17:30:16;84.40;;;35.92;;
22849;SDS011;11591;44.792;10.358;2023-01-31T17:32:43;86.03;;;34.40;;
22849;SDS011;11591;44.792;10.358;2023-01-31T17:37:47;71.00;;;26.75;;
22849;SDS011;11591;44.792;10.358;2023-01-31T17:40:14;59.58;;;25.52;;